Station History

Weather Underground - logo

Station Historical Data
Daily Summary for February 14, 2018 Units:  Both    English   Metric
« Previous Day
Next Day »
Daily Weekly Monthly Yearly Custom
  High: Low: Average:
Temperature: 67.1 °F /  19.5 °C 38.7 °F /  3.7 °C 51.3 °F /  10.7 °C
Dew Point: 43.8 °F /  6.6 °C 33.4 °F /  0.8 °C 38.5 °F /  3.6 °C
Humidity: 86 % 33 % 64 %
Wind Speed: 8.1 mph /  13 km/h - 0.9 mph /  1.4 km/h
Wind Gust: 8.1 mph /  13 km/h - -
Wind:- - SSW
Pressure: 30.20 in /  1022.6 hPa 30.08 in /  1018.5 hPa -
Precipitation: 0.00 in /  0 mm    
Historical Graphs
 
 
Tabular Data for February 14, 2018
Time Temperature Dew Point Pressure Wind Wind Speed Wind Gust Humidity Rainfall Rate (Hourly)
00:02 46.4 °F /  8 °C 37.5 °F /  3.1 °C 30.17 in /  1021.6 hPa Calm     71 % 0.00 in /  0 mm
00:07 46.0 °F /  7.8 °C 37.5 °F /  3.1 °C 30.17 in /  1021.6 hPa Calm     72 % 0.00 in /  0 mm
00:12 45.6 °F /  7.6 °C 37.4 °F /  3 °C 30.17 in /  1021.6 hPa Calm     73 % 0.00 in /  0 mm
00:17 45.3 °F /  7.4 °C 37.5 °F /  3.1 °C 30.17 in /  1021.6 hPa Calm     74 % 0.00 in /  0 mm
00:22 45.0 °F /  7.2 °C 37.2 °F /  2.9 °C 30.17 in /  1021.6 hPa Calm     74 % 0.00 in /  0 mm
00:27 44.6 °F /  7 °C 37.2 °F /  2.9 °C 30.17 in /  1021.6 hPa Calm     75 % 0.00 in /  0 mm
00:32 44.3 °F /  6.8 °C 36.9 °F /  2.7 °C 30.17 in /  1021.6 hPa Calm     75 % 0.00 in /  0 mm
00:37 44.1 °F /  6.7 °C 36.7 °F /  2.6 °C 30.17 in /  1021.6 hPa Calm     75 % 0.00 in /  0 mm
00:42 44.2 °F /  6.8 °C 36.4 °F /  2.4 °C 30.17 in /  1021.6 hPa Calm     74 % 0.00 in /  0 mm
00:47 44.4 °F /  6.9 °C 36.6 °F /  2.6 °C 30.17 in /  1021.6 hPa Calm     74 % 0.00 in /  0 mm
00:52 44.1 °F /  6.7 °C 36.3 °F /  2.4 °C 30.17 in /  1021.6 hPa Calm     74 % 0.00 in /  0 mm
00:57 43.9 °F /  6.6 °C 36.1 °F /  2.3 °C 30.17 in /  1021.6 hPa Calm     74 % 0.00 in /  0 mm
01:02 43.8 °F /  6.6 °C 36.0 °F /  2.2 °C 30.17 in /  1021.6 hPa Calm     74 % 0.00 in /  0 mm
01:07 44.0 °F /  6.7 °C 35.9 °F /  2.2 °C 30.17 in /  1021.6 hPa Calm     73 % 0.00 in /  0 mm
01:13 44.4 °F /  6.9 °C 35.9 °F /  2.2 °C 30.16 in /  1021.2 hPa Calm     72 % 0.00 in /  0 mm
01:18 44.8 °F /  7.1 °C 36.0 °F /  2.2 °C 30.16 in /  1021.2 hPa Calm     71 % 0.00 in /  0 mm
01:23 44.9 °F /  7.2 °C 36.1 °F /  2.3 °C 30.16 in /  1021.2 hPa Calm     71 % 0.00 in /  0 mm
01:28 45.1 °F /  7.3 °C 35.9 °F /  2.2 °C 30.16 in /  1021.2 hPa Calm     70 % 0.00 in /  0 mm
01:33 44.9 °F /  7.2 °C 36.1 °F /  2.3 °C 30.16 in /  1021.2 hPa Calm     71 % 0.00 in /  0 mm
01:38 44.8 °F /  7.1 °C 36.0 °F /  2.2 °C 30.16 in /  1021.2 hPa Calm     71 % 0.00 in /  0 mm
01:43 44.6 °F /  7 °C 35.8 °F /  2.1 °C 30.16 in /  1021.2 hPa Calm     71 % 0.00 in /  0 mm
01:48 44.4 °F /  6.9 °C 35.6 °F /  2 °C 30.16 in /  1021.2 hPa Calm     71 % 0.00 in /  0 mm
01:53 44.2 °F /  6.8 °C 35.7 °F /  2.1 °C 30.16 in /  1021.2 hPa Calm     72 % 0.00 in /  0 mm
01:58 44.4 °F /  6.9 °C 35.9 °F /  2.2 °C 30.16 in /  1021.2 hPa Calm     72 % 0.00 in /  0 mm
02:03 43.8 °F /  6.6 °C 35.7 °F /  2.1 °C 30.16 in /  1021.2 hPa Calm     73 % 0.00 in /  0 mm
02:08 42.7 °F /  5.9 °C 35.7 °F /  2.1 °C 30.16 in /  1021.2 hPa Calm     76 % 0.00 in /  0 mm
02:13 42.5 °F /  5.8 °C 35.8 °F /  2.1 °C 30.16 in /  1021.2 hPa Calm     77 % 0.00 in /  0 mm
02:18 42.3 °F /  5.7 °C 35.9 °F /  2.2 °C 30.16 in /  1021.2 hPa Calm     78 % 0.00 in /  0 mm
02:23 42.0 °F /  5.6 °C 35.6 °F /  2 °C 30.16 in /  1021.2 hPa Calm     78 % 0.00 in /  0 mm
02:28 41.8 °F /  5.4 °C 35.8 °F /  2.1 °C 30.16 in /  1021.2 hPa Calm     79 % 0.00 in /  0 mm
02:33 41.6 °F /  5.3 °C 35.6 °F /  2 °C 30.16 in /  1021.2 hPa Calm     79 % 0.00 in /  0 mm
02:38 41.6 °F /  5.3 °C 35.6 °F /  2 °C 30.16 in /  1021.2 hPa Calm     79 % 0.00 in /  0 mm
02:43 41.3 °F /  5.2 °C 35.3 °F /  1.8 °C 30.16 in /  1021.2 hPa Calm     79 % 0.00 in /  0 mm
02:48 41.3 °F /  5.2 °C 35.3 °F /  1.8 °C 30.16 in /  1021.2 hPa Calm     79 % 0.00 in /  0 mm
02:53 41.3 °F /  5.2 °C 35.6 °F /  2 °C 30.16 in /  1021.2 hPa Calm     80 % 0.00 in /  0 mm
02:58 42.1 °F /  5.6 °C 35.7 °F /  2.1 °C 30.16 in /  1021.2 hPa Calm     78 % 0.00 in /  0 mm
03:03 42.5 °F /  5.8 °C 35.5 °F /  1.9 °C 30.15 in /  1020.9 hPa Calm     76 % 0.00 in /  0 mm
03:08 42.7 °F /  5.9 °C 35.3 °F /  1.8 °C 30.15 in /  1020.9 hPa Calm     75 % 0.00 in /  0 mm
03:13 42.6 °F /  5.9 °C 35.2 °F /  1.8 °C 30.15 in /  1020.9 hPa Calm     75 % 0.00 in /  0 mm
03:18 42.4 °F /  5.8 °C 35.0 °F /  1.7 °C 30.15 in /  1020.9 hPa Calm     75 % 0.00 in /  0 mm
03:23 42.3 °F /  5.7 °C 34.9 °F /  1.6 °C 30.15 in /  1020.9 hPa Calm     75 % 0.00 in /  0 mm
03:28 42.2 °F /  5.7 °C 34.8 °F /  1.6 °C 30.15 in /  1020.9 hPa Calm     75 % 0.00 in /  0 mm
03:33 42.0 °F /  5.6 °C 34.6 °F /  1.4 °C 30.15 in /  1020.9 hPa Calm     75 % 0.00 in /  0 mm
03:38 41.8 °F /  5.4 °C 34.8 °F /  1.6 °C 30.15 in /  1020.9 hPa Calm     76 % 0.00 in /  0 mm
03:43 41.6 °F /  5.3 °C 34.6 °F /  1.4 °C 30.15 in /  1020.9 hPa Calm     76 % 0.00 in /  0 mm
03:48 41.2 °F /  5.1 °C 34.5 °F /  1.4 °C 30.15 in /  1020.9 hPa Calm     77 % 0.00 in /  0 mm
03:53 41.1 °F /  5.1 °C 34.4 °F /  1.3 °C 30.15 in /  1020.9 hPa Calm     77 % 0.00 in /  0 mm
03:58 41.1 °F /  5.1 °C 34.8 °F /  1.6 °C 30.14 in /  1020.5 hPa Calm     78 % 0.00 in /  0 mm
04:03 41.1 °F /  5.1 °C 34.4 °F /  1.3 °C 30.15 in /  1020.9 hPa Calm     77 % 0.00 in /  0 mm
04:08 41.2 °F /  5.1 °C 34.5 °F /  1.4 °C 30.14 in /  1020.5 hPa Calm     77 % 0.00 in /  0 mm
04:13 41.1 °F /  5.1 °C 34.8 °F /  1.6 °C 30.14 in /  1020.5 hPa Calm     78 % 0.00 in /  0 mm
04:18 40.9 °F /  4.9 °C 34.6 °F /  1.4 °C 30.14 in /  1020.5 hPa Calm     78 % 0.00 in /  0 mm
04:23 40.7 °F /  4.8 °C 34.4 °F /  1.3 °C 30.14 in /  1020.5 hPa Calm     78 % 0.00 in /  0 mm
04:28 40.9 °F /  4.9 °C 34.6 °F /  1.4 °C 30.14 in /  1020.5 hPa Calm     78 % 0.00 in /  0 mm
04:33 41.0 °F /  5 °C 34.7 °F /  1.5 °C 30.14 in /  1020.5 hPa Calm     78 % 0.00 in /  0 mm
04:38 40.9 °F /  4.9 °C 34.6 °F /  1.4 °C 30.14 in /  1020.5 hPa Calm     78 % 0.00 in /  0 mm
04:43 40.8 °F /  4.9 °C 34.5 °F /  1.4 °C 30.14 in /  1020.5 hPa Calm     78 % 0.00 in /  0 mm
04:48 40.5 °F /  4.7 °C 34.5 °F /  1.4 °C 30.14 in /  1020.5 hPa Calm     79 % 0.00 in /  0 mm
04:53 39.7 °F /  4.3 °C 33.4 °F /  0.8 °C 30.14 in /  1020.5 hPa Calm     78 % 0.00 in /  0 mm
04:58 39.1 °F /  3.9 °C 33.5 °F /  0.8 °C 30.13 in /  1020.2 hPa Calm     80 % 0.00 in /  0 mm
05:03 38.8 °F /  3.8 °C 33.5 °F /  0.8 °C 30.13 in /  1020.2 hPa Calm     81 % 0.00 in /  0 mm
05:08 38.7 °F /  3.7 °C 33.7 °F /  0.9 °C 30.13 in /  1020.2 hPa Calm     82 % 0.00 in /  0 mm
05:13 38.8 °F /  3.8 °C 34.1 °F /  1.2 °C 30.13 in /  1020.2 hPa Calm     83 % 0.00 in /  0 mm
05:18 39.3 °F /  4.1 °C 34.3 °F /  1.3 °C 30.13 in /  1020.2 hPa Calm     82 % 0.00 in /  0 mm
05:23 40.0 °F /  4.4 °C 34.3 °F /  1.3 °C 30.13 in /  1020.2 hPa Calm     80 % 0.00 in /  0 mm
05:28 40.8 °F /  4.9 °C 34.5 °F /  1.4 °C 30.13 in /  1020.2 hPa Calm     78 % 0.00 in /  0 mm
05:33 41.5 °F /  5.3 °C 34.5 °F /  1.4 °C 30.13 in /  1020.2 hPa Calm     76 % 0.00 in /  0 mm
05:38 41.8 °F /  5.4 °C 34.5 °F /  1.4 °C 30.13 in /  1020.2 hPa Calm     75 % 0.00 in /  0 mm
05:43 42.1 °F /  5.6 °C 34.7 °F /  1.5 °C 30.14 in /  1020.5 hPa Calm     75 % 0.00 in /  0 mm
05:48 42.1 °F /  5.6 °C 35.4 °F /  1.9 °C 30.14 in /  1020.5 hPa Calm     77 % 0.00 in /  0 mm
05:53 41.7 °F /  5.4 °C 35.0 °F /  1.7 °C 30.14 in /  1020.5 hPa Calm     77 % 0.00 in /  0 mm
05:58 41.2 °F /  5.1 °C 35.2 °F /  1.8 °C 30.14 in /  1020.5 hPa Calm     79 % 0.00 in /  0 mm
06:03 40.7 °F /  4.8 °C 35.0 °F /  1.7 °C 30.14 in /  1020.5 hPa Calm     80 % 0.00 in /  0 mm
06:08 40.6 °F /  4.8 °C 35.2 °F /  1.8 °C 30.14 in /  1020.5 hPa Calm     81 % 0.00 in /  0 mm
06:14 40.8 °F /  4.9 °C 35.4 °F /  1.9 °C 30.15 in /  1020.9 hPa Calm     81 % 0.00 in /  0 mm
06:19 40.8 °F /  4.9 °C 35.7 °F /  2.1 °C 30.15 in /  1020.9 hPa Calm     82 % 0.00 in /  0 mm
06:24 40.8 °F /  4.9 °C 35.4 °F /  1.9 °C 30.15 in /  1020.9 hPa Calm     81 % 0.00 in /  0 mm
06:29 40.8 °F /  4.9 °C 35.7 °F /  2.1 °C 30.15 in /  1020.9 hPa Calm     82 % 0.00 in /  0 mm
06:34 40.7 °F /  4.8 °C 35.9 °F /  2.2 °C 30.15 in /  1020.9 hPa Calm     83 % 0.00 in /  0 mm
06:39 40.5 °F /  4.7 °C 36.0 °F /  2.2 °C 30.16 in /  1021.2 hPa Calm     84 % 0.00 in /  0 mm
06:44 40.4 °F /  4.7 °C 36.2 °F /  2.3 °C 30.16 in /  1021.2 hPa Calm     85 % 0.00 in /  0 mm
06:49 40.5 °F /  4.7 °C 36.0 °F /  2.2 °C 30.16 in /  1021.2 hPa Calm     84 % 0.00 in /  0 mm
06:54 40.7 °F /  4.8 °C 36.5 °F /  2.5 °C 30.16 in /  1021.2 hPa Calm     85 % 0.00 in /  0 mm
06:59 40.6 °F /  4.8 °C 36.4 °F /  2.4 °C 30.16 in /  1021.2 hPa Calm     85 % 0.00 in /  0 mm
07:04 40.6 °F /  4.8 °C 36.7 °F /  2.6 °C 30.16 in /  1021.2 hPa Calm     86 % 0.00 in /  0 mm
07:09 40.7 °F /  4.8 °C 36.8 °F /  2.7 °C 30.16 in /  1021.2 hPa Calm     86 % 0.00 in /  0 mm
07:14 40.9 °F /  4.9 °C 36.7 °F /  2.6 °C 30.16 in /  1021.2 hPa Calm     85 % 0.00 in /  0 mm
07:19 41.2 °F /  5.1 °C 37.0 °F /  2.8 °C 30.16 in /  1021.2 hPa Calm     85 % 0.00 in /  0 mm
07:24 41.5 °F /  5.3 °C 37.0 °F /  2.8 °C 30.16 in /  1021.2 hPa Calm     84 % 0.00 in /  0 mm
07:29 41.8 °F /  5.4 °C 37.0 °F /  2.8 °C 30.17 in /  1021.6 hPa Calm     83 % 0.00 in /  0 mm
07:34 42.1 °F /  5.6 °C 37.3 °F /  2.9 °C 30.17 in /  1021.6 hPa Calm     83 % 0.00 in /  0 mm
07:39 42.3 °F /  5.7 °C 37.5 °F /  3.1 °C 30.17 in /  1021.6 hPa Calm     83 % 0.00 in /  0 mm
07:44 42.6 °F /  5.9 °C 37.5 °F /  3.1 °C 30.17 in /  1021.6 hPa Calm     82 % 0.00 in /  0 mm
07:49 42.9 °F /  6.1 °C 37.8 °F /  3.2 °C 30.18 in /  1021.9 hPa Calm     82 % 0.00 in /  0 mm
07:54 43.1 °F /  6.2 °C 38.0 °F /  3.3 °C 30.18 in /  1021.9 hPa Calm     82 % 0.00 in /  0 mm
07:59 43.4 °F /  6.3 °C 38.3 °F /  3.5 °C 30.18 in /  1021.9 hPa Calm     82 % 0.00 in /  0 mm
08:04 43.7 °F /  6.5 °C 38.9 °F /  3.8 °C 30.18 in /  1021.9 hPa Calm     83 % 0.00 in /  0 mm
08:09 44.0 °F /  6.7 °C 39.2 °F /  4 °C 30.19 in /  1022.2 hPa Calm     83 % 0.00 in /  0 mm
08:14 44.3 °F /  6.8 °C 39.2 °F /  4 °C 30.19 in /  1022.2 hPa Calm     82 % 0.00 in /  0 mm
08:19 44.5 °F /  6.9 °C 39.3 °F /  4.1 °C 30.19 in /  1022.2 hPa Calm     82 % 0.00 in /  0 mm
08:24 44.9 °F /  7.2 °C 39.7 °F /  4.3 °C 30.19 in /  1022.2 hPa Calm     82 % 0.00 in /  0 mm
08:29 45.4 °F /  7.4 °C 39.9 °F /  4.4 °C 30.19 in /  1022.2 hPa Calm     81 % 0.00 in /  0 mm
08:34 46.0 °F /  7.8 °C 40.2 °F /  4.6 °C 30.19 in /  1022.2 hPa Calm     80 % 0.00 in /  0 mm
08:39 46.7 °F /  8.2 °C 39.9 °F /  4.4 °C 30.19 in /  1022.2 hPa Calm     77 % 0.00 in /  0 mm
08:44 47.6 °F /  8.7 °C 39.7 °F /  4.3 °C 30.20 in /  1022.6 hPa SSE 2.3 mph /  3.7 km/h 2.3 mph /  3.7 km/h 74 % 0.00 in /  0 mm
08:49 48.5 °F /  9.2 °C 39.9 °F /  4.4 °C 30.20 in /  1022.6 hPa SE 3.5 mph /  5.6 km/h 3.5 mph /  5.6 km/h 72 % 0.00 in /  0 mm
08:54 49.3 °F /  9.6 °C 40.3 °F /  4.6 °C 30.20 in /  1022.6 hPa South 3.5 mph /  5.6 km/h 3.5 mph /  5.6 km/h 71 % 0.00 in /  0 mm
08:59 50.1 °F /  10.1 °C 40.7 °F /  4.8 °C 30.20 in /  1022.6 hPa SSW 6.0 mph /  9.7 km/h 6.0 mph /  9.7 km/h 70 % 0.00 in /  0 mm
09:04 50.6 °F /  10.3 °C 40.8 °F /  4.9 °C 30.20 in /  1022.6 hPa SSW 2.3 mph /  3.7 km/h 2.3 mph /  3.7 km/h 69 % 0.00 in /  0 mm
09:09 51.1 °F /  10.6 °C 40.9 °F /  4.9 °C 30.20 in /  1022.6 hPa SE 3.5 mph /  5.6 km/h 3.5 mph /  5.6 km/h 68 % 0.00 in /  0 mm
09:14 51.5 °F /  10.8 °C 40.5 °F /  4.7 °C 30.20 in /  1022.6 hPa SSW 5.0 mph /  8 km/h 5.0 mph /  8 km/h 66 % 0.00 in /  0 mm
09:19 52.0 °F /  11.1 °C 40.6 °F /  4.8 °C 30.20 in /  1022.6 hPa SSE 2.3 mph /  3.7 km/h 2.3 mph /  3.7 km/h 65 % 0.00 in /  0 mm
09:24 52.5 °F /  11.4 °C 40.7 °F /  4.8 °C 30.20 in /  1022.6 hPa SSE 3.5 mph /  5.6 km/h 3.5 mph /  5.6 km/h 64 % 0.00 in /  0 mm
09:29 53.0 °F /  11.7 °C 41.5 °F /  5.3 °C 30.20 in /  1022.6 hPa SE 1.2 mph /  1.9 km/h   65 % 0.00 in /  0 mm
09:34 53.5 °F /  11.9 °C 41.2 °F /  5.1 °C 30.20 in /  1022.6 hPa SSE 3.5 mph /  5.6 km/h 3.5 mph /  5.6 km/h 63 % 0.00 in /  0 mm
09:39 53.7 °F /  12.1 °C 41.0 °F /  5 °C 30.20 in /  1022.6 hPa SSE 2.3 mph /  3.7 km/h 2.3 mph /  3.7 km/h 62 % 0.00 in /  0 mm
09:44 54.0 °F /  12.2 °C 41.3 °F /  5.2 °C 30.20 in /  1022.6 hPa SSE 2.3 mph /  3.7 km/h   62 % 0.00 in /  0 mm
09:49 54.9 °F /  12.7 °C 41.3 °F /  5.2 °C 30.20 in /  1022.6 hPa SSW 2.3 mph /  3.7 km/h 2.3 mph /  3.7 km/h 60 % 0.00 in /  0 mm
09:54 55.4 °F /  13 °C 40.9 °F /  4.9 °C 30.19 in /  1022.2 hPa ESE 3.5 mph /  5.6 km/h 3.5 mph /  5.6 km/h 58 % 0.00 in /  0 mm
09:59 56.0 °F /  13.3 °C 41.0 °F /  5 °C 30.19 in /  1022.2 hPa SE 8.0 mph /  12.9 km/h 8.0 mph /  12.9 km/h 57 % 0.00 in /  0 mm
10:04 56.1 °F /  13.4 °C 41.1 °F /  5.1 °C 30.19 in /  1022.2 hPa SE 4.6 mph /  7.4 km/h 4.6 mph /  7.4 km/h 57 % 0.00 in /  0 mm
10:09 56.1 °F /  13.4 °C 40.6 °F /  4.8 °C 30.19 in /  1022.2 hPa SSE 4.6 mph /  7.4 km/h 4.6 mph /  7.4 km/h 56 % 0.00 in /  0 mm
10:14 55.9 °F /  13.3 °C 40.9 °F /  4.9 °C 30.20 in /  1022.6 hPa SE 4.0 mph /  6.4 km/h 4.0 mph /  6.4 km/h 57 % 0.00 in /  0 mm
10:19 55.7 °F /  13.2 °C 41.1 °F /  5.1 °C 30.20 in /  1022.6 hPa South 1.2 mph /  1.9 km/h 1.2 mph /  1.9 km/h 58 % 0.00 in /  0 mm
10:24 55.8 °F /  13.2 °C 41.7 °F /  5.4 °C 30.20 in /  1022.6 hPa ENE 4.6 mph /  7.4 km/h 4.6 mph /  7.4 km/h 59 % 0.00 in /  0 mm
10:29 56.4 °F /  13.6 °C 41.8 °F /  5.4 °C 30.19 in /  1022.2 hPa ESE 5.8 mph /  9.3 km/h 5.8 mph /  9.3 km/h 58 % 0.00 in /  0 mm
10:34 57.5 °F /  14.2 °C 43.3 °F /  6.3 °C 30.19 in /  1022.2 hPa SSE 2.3 mph /  3.7 km/h 2.3 mph /  3.7 km/h 59 % 0.00 in /  0 mm
10:39 58.4 °F /  14.7 °C 42.3 °F /  5.7 °C 30.19 in /  1022.2 hPa ENE 5.8 mph /  9.3 km/h 5.8 mph /  9.3 km/h 55 % 0.00 in /  0 mm
10:44 59.3 °F /  15.2 °C 42.2 °F /  5.7 °C 30.19 in /  1022.2 hPa South 6.9 mph /  11.1 km/h 6.9 mph /  11.1 km/h 53 % 0.00 in /  0 mm
10:49 60.1 °F /  15.6 °C 43.4 °F /  6.3 °C 30.18 in /  1021.9 hPa South 4.6 mph /  7.4 km/h 4.6 mph /  7.4 km/h 54 % 0.00 in /  0 mm
10:54 60.7 °F /  15.9 °C 41.9 °F /  5.5 °C 30.18 in /  1021.9 hPa SE 3.5 mph /  5.6 km/h 3.5 mph /  5.6 km/h 50 % 0.00 in /  0 mm
10:59 61.4 °F /  16.3 °C 41.5 °F /  5.3 °C 30.18 in /  1021.9 hPa SSE 4.6 mph /  7.4 km/h 4.6 mph /  7.4 km/h 48 % 0.00 in /  0 mm
11:04 61.8 °F /  16.6 °C 41.3 °F /  5.2 °C 30.18 in /  1021.9 hPa ESE 5.8 mph /  9.3 km/h 5.8 mph /  9.3 km/h 47 % 0.00 in /  0 mm
11:09 62.2 °F /  16.8 °C 41.2 °F /  5.1 °C 30.18 in /  1021.9 hPa SE 4.6 mph /  7.4 km/h 4.6 mph /  7.4 km/h 46 % 0.00 in /  0 mm
11:14 62.5 °F /  16.9 °C 42.0 °F /  5.6 °C 30.17 in /  1021.6 hPa South 4.6 mph /  7.4 km/h 4.6 mph /  7.4 km/h 47 % 0.00 in /  0 mm
11:19 63.0 °F /  17.2 °C 42.4 °F /  5.8 °C 30.17 in /  1021.6 hPa SSE 4.6 mph /  7.4 km/h 4.6 mph /  7.4 km/h 47 % 0.00 in /  0 mm
11:24 63.3 °F /  17.4 °C 42.2 °F /  5.7 °C 30.17 in /  1021.6 hPa SSE 3.5 mph /  5.6 km/h 3.5 mph /  5.6 km/h 46 % 0.00 in /  0 mm
11:29 63.2 °F /  17.3 °C 40.9 °F /  4.9 °C 30.17 in /  1021.6 hPa South 8.1 mph /  13 km/h 8.1 mph /  13 km/h 44 % 0.00 in /  0 mm
11:34 63.1 °F /  17.3 °C 41.4 °F /  5.2 °C 30.17 in /  1021.6 hPa ESE 5.8 mph /  9.3 km/h 5.8 mph /  9.3 km/h 45 % 0.00 in /  0 mm
11:39 63.3 °F /  17.4 °C 41.6 °F /  5.3 °C 30.17 in /  1021.6 hPa South 5.8 mph /  9.3 km/h 5.8 mph /  9.3 km/h 45 % 0.00 in /  0 mm
11:44 63.9 °F /  17.7 °C 41.0 °F /  5 °C 30.16 in /  1021.2 hPa SW 6.9 mph /  11.1 km/h 6.9 mph /  11.1 km/h 43 % 0.00 in /  0 mm
11:49 64.1 °F /  17.8 °C 40.5 °F /  4.7 °C 30.16 in /  1021.2 hPa SSE 6.9 mph /  11.1 km/h 6.9 mph /  11.1 km/h 42 % 0.00 in /  0 mm
11:54 64.6 °F /  18.1 °C 41.0 °F /  5 °C 30.16 in /  1021.2 hPa SSW 3.5 mph /  5.6 km/h 3.5 mph /  5.6 km/h 42 % 0.00 in /  0 mm
11:59 64.9 °F /  18.3 °C 40.6 °F /  4.8 °C 30.16 in /  1021.2 hPa SSE 5.0 mph /  8 km/h 5.0 mph /  8 km/h 41 % 0.00 in /  0 mm
12:04 64.9 °F /  18.3 °C 40.0 °F /  4.4 °C 30.15 in /  1020.9 hPa SSE 3.5 mph /  5.6 km/h 3.5 mph /  5.6 km/h 40 % 0.00 in /  0 mm
12:09 64.8 °F /  18.2 °C 39.9 °F /  4.4 °C 30.15 in /  1020.9 hPa SSE 3.5 mph /  5.6 km/h 3.5 mph /  5.6 km/h 40 % 0.00 in /  0 mm
12:14 65.1 °F /  18.4 °C 40.8 °F /  4.9 °C 30.15 in /  1020.9 hPa WSW 3.5 mph /  5.6 km/h 3.5 mph /  5.6 km/h 41 % 0.00 in /  0 mm
12:19 65.5 °F /  18.6 °C 40.5 °F /  4.7 °C 30.15 in /  1020.9 hPa South 2.3 mph /  3.7 km/h 2.3 mph /  3.7 km/h 40 % 0.00 in /  0 mm
12:24 65.6 °F /  18.7 °C 40.0 °F /  4.4 °C 30.14 in /  1020.5 hPa SSE 3.5 mph /  5.6 km/h 3.5 mph /  5.6 km/h 39 % 0.00 in /  0 mm
12:29 65.8 °F /  18.8 °C 40.8 °F /  4.9 °C 30.14 in /  1020.5 hPa ESE 5.8 mph /  9.3 km/h   40 % 0.00 in /  0 mm
12:34 65.9 °F /  18.8 °C 40.9 °F /  4.9 °C 30.14 in /  1020.5 hPa WSW 3.5 mph /  5.6 km/h 3.5 mph /  5.6 km/h 40 % 0.00 in /  0 mm
12:39 65.8 °F /  18.8 °C 40.8 °F /  4.9 °C 30.14 in /  1020.5 hPa SSE 2.3 mph /  3.7 km/h 2.3 mph /  3.7 km/h 40 % 0.00 in /  0 mm
12:44 65.6 °F /  18.7 °C 40.6 °F /  4.8 °C 30.14 in /  1020.5 hPa SSE 1.0 mph /  1.6 km/h 1.3 mph /  2.1 km/h 40 % 0.00 in /  0 mm
12:49 65.6 °F /  18.7 °C 40.6 °F /  4.8 °C 30.14 in /  1020.5 hPa SW 1.2 mph /  1.9 km/h   40 % 0.00 in /  0 mm
12:55 65.1 °F /  18.4 °C 40.8 °F /  4.9 °C 30.13 in /  1020.2 hPa NNW 3.5 mph /  5.6 km/h 3.5 mph /  5.6 km/h 41 % 0.00 in /  0 mm
13:00 64.8 °F /  18.2 °C 41.2 °F /  5.1 °C 30.13 in /  1020.2 hPa SSE 2.3 mph /  3.7 km/h 2.3 mph /  3.7 km/h 42 % 0.00 in /  0 mm
13:05 65.0 °F /  18.3 °C 41.3 °F /  5.2 °C 30.13 in /  1020.2 hPa SSE 3.5 mph /  5.6 km/h 3.5 mph /  5.6 km/h 42 % 0.00 in /  0 mm
13:10 65.2 °F /  18.4 °C 40.9 °F /  4.9 °C 30.13 in /  1020.2 hPa South 3.5 mph /  5.6 km/h 3.5 mph /  5.6 km/h 41 % 0.00 in /  0 mm
13:15 65.2 °F /  18.4 °C 42.7 °F /  5.9 °C 30.13 in /  1020.2 hPa South 2.3 mph /  3.7 km/h 2.3 mph /  3.7 km/h 44 % 0.00 in /  0 mm
13:20 65.1 °F /  18.4 °C 42.6 °F /  5.9 °C 30.12 in /  1019.9 hPa SSW 2.3 mph /  3.7 km/h 2.3 mph /  3.7 km/h 44 % 0.00 in /  0 mm
13:25 65.1 °F /  18.4 °C 42.6 °F /  5.9 °C 30.12 in /  1019.9 hPa NNW 2.0 mph /  3.2 km/h 2.0 mph /  3.2 km/h 44 % 0.00 in /  0 mm
13:30 65.2 °F /  18.4 °C 42.7 °F /  5.9 °C 30.12 in /  1019.9 hPa South 1.2 mph /  1.9 km/h   44 % 0.00 in /  0 mm
13:35 65.6 °F /  18.7 °C 43.1 °F /  6.2 °C 30.12 in /  1019.9 hPa Calm     44 % 0.00 in /  0 mm
13:40 65.8 °F /  18.8 °C 42.7 °F /  5.9 °C 30.12 in /  1019.9 hPa NNW 2.0 mph /  3.2 km/h 2.0 mph /  3.2 km/h 43 % 0.00 in /  0 mm
13:45 65.5 °F /  18.6 °C 41.8 °F /  5.4 °C 30.11 in /  1019.5 hPa WNW 2.3 mph /  3.7 km/h 2.3 mph /  3.7 km/h 42 % 0.00 in /  0 mm
13:50 65.7 °F /  18.7 °C 43.8 °F /  6.6 °C 30.11 in /  1019.5 hPa Calm     45 % 0.00 in /  0 mm
13:55 65.7 °F /  18.7 °C 40.7 °F /  4.8 °C 30.11 in /  1019.5 hPa NNW 1.2 mph /  1.9 km/h   40 % 0.00 in /  0 mm
14:00 65.6 °F /  18.7 °C 40.0 °F /  4.4 °C 30.11 in /  1019.5 hPa NW 2.3 mph /  3.7 km/h 2.3 mph /  3.7 km/h 39 % 0.00 in /  0 mm
14:05 65.3 °F /  18.5 °C 39.7 °F /  4.3 °C 30.11 in /  1019.5 hPa Calm     39 % 0.00 in /  0 mm
14:10 65.4 °F /  18.6 °C 39.8 °F /  4.3 °C 30.11 in /  1019.5 hPa SSE 1.2 mph /  1.9 km/h 1.2 mph /  1.9 km/h 39 % 0.00 in /  0 mm
14:15 65.6 °F /  18.7 °C 39.3 °F /  4.1 °C 30.10 in /  1019.2 hPa Calm     38 % 0.00 in /  0 mm
14:20 66.4 °F /  19.1 °C 40.0 °F /  4.4 °C 30.10 in /  1019.2 hPa SW 1.2 mph /  1.9 km/h 1.2 mph /  1.9 km/h 38 % 0.00 in /  0 mm
14:25 66.8 °F /  19.3 °C 38.3 °F /  3.5 °C 30.10 in /  1019.2 hPa NW 1.2 mph /  1.9 km/h   35 % 0.00 in /  0 mm
14:30 67.1 °F /  19.5 °C 40.6 °F /  4.8 °C 30.10 in /  1019.2 hPa NW 2.0 mph /  3.2 km/h 2.0 mph /  3.2 km/h 38 % 0.00 in /  0 mm
14:35 66.9 °F /  19.4 °C 39.8 °F /  4.3 °C 30.10 in /  1019.2 hPa NNW 1.2 mph /  1.9 km/h 1.2 mph /  1.9 km/h 37 % 0.00 in /  0 mm
14:40 66.6 °F /  19.2 °C 39.5 °F /  4.2 °C 30.10 in /  1019.2 hPa NW 2.3 mph /  3.7 km/h   37 % 0.00 in /  0 mm
14:45 66.0 °F /  18.9 °C 39.7 °F /  4.3 °C 30.10 in /  1019.2 hPa NW 1.2 mph /  1.9 km/h 1.2 mph /  1.9 km/h 38 % 0.00 in /  0 mm
14:50 66.1 °F /  18.9 °C 39.7 °F /  4.3 °C 30.10 in /  1019.2 hPa WNW 2.3 mph /  3.7 km/h 2.3 mph /  3.7 km/h 38 % 0.00 in /  0 mm
14:55 66.2 °F /  19 °C 39.1 °F /  3.9 °C 30.10 in /  1019.2 hPa NW 1.2 mph /  1.9 km/h 1.2 mph /  1.9 km/h 37 % 0.00 in /  0 mm
15:00 66.0 °F /  18.9 °C 39.0 °F /  3.9 °C 30.10 in /  1019.2 hPa West 1.2 mph /  1.9 km/h   37 % 0.00 in /  0 mm
15:05 66.4 °F /  19.1 °C 38.6 °F /  3.7 °C 30.10 in /  1019.2 hPa NW 3.5 mph /  5.6 km/h 3.5 mph /  5.6 km/h 36 % 0.00 in /  0 mm
15:10 66.0 °F /  18.9 °C 36.1 °F /  2.3 °C 30.10 in /  1019.2 hPa NW 1.2 mph /  1.9 km/h 1.2 mph /  1.9 km/h 33 % 0.00 in /  0 mm
15:15 65.9 °F /  18.8 °C 37.5 °F /  3.1 °C 30.09 in /  1018.8 hPa NW 2.3 mph /  3.7 km/h 2.3 mph /  3.7 km/h 35 % 0.00 in /  0 mm
15:20 65.6 °F /  18.7 °C 37.9 °F /  3.3 °C 30.09 in /  1018.8 hPa West 1.2 mph /  1.9 km/h 1.2 mph /  1.9 km/h 36 % 0.00 in /  0 mm
15:25 65.5 °F /  18.6 °C 37.1 °F /  2.8 °C 30.09 in /  1018.8 hPa ESE 1.2 mph /  1.9 km/h   35 % 0.00 in /  0 mm
15:30 65.5 °F /  18.6 °C 38.5 °F /  3.6 °C 30.09 in /  1018.8 hPa WNW 2.0 mph /  3.2 km/h 2.0 mph /  3.2 km/h 37 % 0.00 in /  0 mm
15:35 65.4 °F /  18.6 °C 39.8 °F /  4.3 °C 30.09 in /  1018.8 hPa NW 1.2 mph /  1.9 km/h 1.2 mph /  1.9 km/h 39 % 0.00 in /  0 mm
15:40 65.1 °F /  18.4 °C 39.5 °F /  4.2 °C 30.09 in /  1018.8 hPa Calm     39 % 0.00 in /  0 mm
15:45 65.1 °F /  18.4 °C 39.5 °F /  4.2 °C 30.08 in /  1018.5 hPa SE 1.2 mph /  1.9 km/h   39 % 0.00 in /  0 mm
15:50 65.0 °F /  18.3 °C 39.4 °F /  4.1 °C 30.08 in /  1018.5 hPa Calm     39 % 0.00 in /  0 mm
15:55 64.9 °F /  18.3 °C 38.7 °F /  3.7 °C 30.08 in /  1018.5 hPa NNW 1.2 mph /  1.9 km/h 1.2 mph /  1.9 km/h 38 % 0.00 in /  0 mm
16:00 65.0 °F /  18.3 °C 38.1 °F /  3.4 °C 30.08 in /  1018.5 hPa NNW 1.2 mph /  1.9 km/h 1.2 mph /  1.9 km/h 37 % 0.00 in /  0 mm
16:05 65.0 °F /  18.3 °C 38.1 °F /  3.4 °C 30.08 in /  1018.5 hPa Calm     37 % 0.00 in /  0 mm
16:10 64.9 °F /  18.3 °C 38.0 °F /  3.3 °C 30.08 in /  1018.5 hPa NNW 1.2 mph /  1.9 km/h 1.2 mph /  1.9 km/h 37 % 0.00 in /  0 mm
16:15 64.9 °F /  18.3 °C 38.7 °F /  3.7 °C 30.08 in /  1018.5 hPa West 1.2 mph /  1.9 km/h 1.2 mph /  1.9 km/h 38 % 0.00 in /  0 mm
16:20 64.7 °F /  18.2 °C 37.8 °F /  3.2 °C 30.08 in /  1018.5 hPa Calm     37 % 0.00 in /  0 mm
16:25 64.6 °F /  18.1 °C 39.1 °F /  3.9 °C 30.08 in /  1018.5 hPa Calm     39 % 0.00 in /  0 mm
16:30 64.5 °F /  18.1 °C 38.3 °F /  3.5 °C 30.08 in /  1018.5 hPa Calm     38 % 0.00 in /  0 mm
16:35 64.4 °F /  18 °C 37.5 °F /  3.1 °C 30.08 in /  1018.5 hPa NW 1.2 mph /  1.9 km/h   37 % 0.00 in /  0 mm
16:40 64.3 °F /  17.9 °C 38.1 °F /  3.4 °C 30.08 in /  1018.5 hPa NW 1.2 mph /  1.9 km/h 1.2 mph /  1.9 km/h 38 % 0.00 in /  0 mm
16:45 64.2 °F /  17.9 °C 37.4 °F /  3 °C 30.08 in /  1018.5 hPa Calm     37 % 0.00 in /  0 mm
16:50 64.0 °F /  17.8 °C 39.2 °F /  4 °C 30.08 in /  1018.5 hPa NW 1.2 mph /  1.9 km/h 1.2 mph /  1.9 km/h 40 % 0.00 in /  0 mm
16:55 63.8 °F /  17.7 °C 39.0 °F /  3.9 °C 30.08 in /  1018.5 hPa Calm     40 % 0.00 in /  0 mm
17:00 63.6 °F /  17.6 °C 39.5 °F /  4.2 °C 30.08 in /  1018.5 hPa Calm     41 % 0.00 in /  0 mm
17:05 63.2 °F /  17.3 °C 39.1 °F /  3.9 °C 30.08 in /  1018.5 hPa Calm     41 % 0.00 in /  0 mm
17:10 62.8 °F /  17.1 °C 39.4 °F /  4.1 °C 30.08 in /  1018.5 hPa Calm     42 % 0.00 in /  0 mm
17:15 62.4 °F /  16.9 °C 39.6 °F /  4.2 °C 30.08 in /  1018.5 hPa Calm     43 % 0.00 in /  0 mm
17:20 61.9 °F /  16.6 °C 39.7 °F /  4.3 °C 30.08 in /  1018.5 hPa Calm     44 % 0.00 in /  0 mm
17:25 61.4 °F /  16.3 °C 39.3 °F /  4.1 °C 30.08 in /  1018.5 hPa Calm     44 % 0.00 in /  0 mm
17:30 60.9 °F /  16.1 °C 39.4 °F /  4.1 °C 30.08 in /  1018.5 hPa Calm     45 % 0.00 in /  0 mm
17:35 60.3 °F /  15.7 °C 39.4 °F /  4.1 °C 30.08 in /  1018.5 hPa Calm     46 % 0.00 in /  0 mm
17:40 59.5 °F /  15.3 °C 39.2 °F /  4 °C 30.08 in /  1018.5 hPa Calm     47 % 0.00 in /  0 mm
17:45 58.8 °F /  14.9 °C 40.2 °F /  4.6 °C 30.08 in /  1018.5 hPa Calm     50 % 0.00 in /  0 mm
17:50 58.1 °F /  14.5 °C 39.5 °F /  4.2 °C 30.08 in /  1018.5 hPa Calm     50 % 0.00 in /  0 mm
17:55 57.4 °F /  14.1 °C 40.9 °F /  4.9 °C 30.08 in /  1018.5 hPa Calm     54 % 0.00 in /  0 mm
18:00 56.9 °F /  13.8 °C 39.9 °F /  4.4 °C 30.08 in /  1018.5 hPa Calm     53 % 0.00 in /  0 mm
18:05 56.2 °F /  13.4 °C 40.2 °F /  4.6 °C 30.08 in /  1018.5 hPa Calm     55 % 0.00 in /  0 mm
18:10 55.7 °F /  13.2 °C 40.2 °F /  4.6 °C 30.08 in /  1018.5 hPa Calm     56 % 0.00 in /  0 mm
18:15 55.3 °F /  12.9 °C 40.8 °F /  4.9 °C 30.08 in /  1018.5 hPa Calm     58 % 0.00 in /  0 mm
18:20 54.9 °F /  12.7 °C 41.7 °F /  5.4 °C 30.08 in /  1018.5 hPa Calm     61 % 0.00 in /  0 mm
18:25 54.4 °F /  12.4 °C 41.2 °F /  5.1 °C 30.08 in /  1018.5 hPa Calm     61 % 0.00 in /  0 mm
18:30 54.0 °F /  12.2 °C 40.8 °F /  4.9 °C 30.08 in /  1018.5 hPa Calm     61 % 0.00 in /  0 mm
18:35 53.6 °F /  12 °C 41.7 °F /  5.4 °C 30.08 in /  1018.5 hPa Calm     64 % 0.00 in /  0 mm
18:40 53.2 °F /  11.8 °C 41.3 °F /  5.2 °C 30.08 in /  1018.5 hPa Calm     64 % 0.00 in /  0 mm
18:45 53.0 °F /  11.7 °C 41.5 °F /  5.3 °C 30.08 in /  1018.5 hPa Calm     65 % 0.00 in /  0 mm
18:50 52.7 °F /  11.5 °C 41.7 °F /  5.4 °C 30.08 in /  1018.5 hPa Calm     66 % 0.00 in /  0 mm
18:55 52.4 °F /  11.3 °C 41.8 °F /  5.4 °C 30.08 in /  1018.5 hPa Calm     67 % 0.00 in /  0 mm
19:00 52.0 °F /  11.1 °C 41.8 °F /  5.4 °C 30.08 in /  1018.5 hPa Calm     68 % 0.00 in /  0 mm
19:05 51.8 °F /  11 °C 41.6 °F /  5.3 °C 30.08 in /  1018.5 hPa Calm     68 % 0.00 in /  0 mm
19:10 51.7 °F /  10.9 °C 40.7 °F /  4.8 °C 30.09 in /  1018.8 hPa Calm     66 % 0.00 in /  0 mm
19:15 51.5 °F /  10.8 °C 40.5 °F /  4.7 °C 30.09 in /  1018.8 hPa Calm     66 % 0.00 in /  0 mm
19:20 51.6 °F /  10.9 °C 40.2 °F /  4.6 °C 30.08 in /  1018.5 hPa Calm     65 % 0.00 in /  0 mm
19:25 51.8 °F /  11 °C 40.4 °F /  4.7 °C 30.08 in /  1018.5 hPa Calm     65 % 0.00 in /  0 mm
19:30 51.8 °F /  11 °C 40.0 °F /  4.4 °C 30.08 in /  1018.5 hPa Calm     64 % 0.00 in /  0 mm
19:35 51.6 °F /  10.9 °C 40.2 °F /  4.6 °C 30.09 in /  1018.8 hPa Calm     65 % 0.00 in /  0 mm
19:40 51.1 °F /  10.6 °C 39.7 °F /  4.3 °C 30.09 in /  1018.8 hPa Calm     65 % 0.00 in /  0 mm
19:45 51.0 °F /  10.6 °C 40.0 °F /  4.4 °C 30.09 in /  1018.8 hPa Calm     66 % 0.00 in /  0 mm
19:50 51.4 °F /  10.8 °C 40.0 °F /  4.4 °C 30.09 in /  1018.8 hPa Calm     65 % 0.00 in /  0 mm
19:55 51.6 °F /  10.9 °C 40.2 °F /  4.6 °C 30.09 in /  1018.8 hPa Calm     65 % 0.00 in /  0 mm
20:00 50.9 °F /  10.5 °C 40.3 °F /  4.6 °C 30.09 in /  1018.8 hPa Calm     67 % 0.00 in /  0 mm
20:05 50.4 °F /  10.2 °C 39.9 °F /  4.4 °C 30.09 in /  1018.8 hPa Calm     67 % 0.00 in /  0 mm
20:10 50.3 °F /  10.2 °C 39.4 °F /  4.1 °C 30.09 in /  1018.8 hPa Calm     66 % 0.00 in /  0 mm
20:15 50.0 °F /  10 °C 40.2 °F /  4.6 °C 30.10 in /  1019.2 hPa Calm     69 % 0.00 in /  0 mm
20:20 49.5 °F /  9.7 °C 40.1 °F /  4.5 °C 30.10 in /  1019.2 hPa Calm     70 % 0.00 in /  0 mm
20:25 49.1 °F /  9.5 °C 40.1 °F /  4.5 °C 30.10 in /  1019.2 hPa Calm     71 % 0.00 in /  0 mm
20:30 48.6 °F /  9.2 °C 40.0 °F /  4.4 °C 30.10 in /  1019.2 hPa Calm     72 % 0.00 in /  0 mm
20:35 48.3 °F /  9.1 °C 40.0 °F /  4.4 °C 30.10 in /  1019.2 hPa Calm     73 % 0.00 in /  0 mm
20:40 48.3 °F /  9.1 °C 39.7 °F /  4.3 °C 30.10 in /  1019.2 hPa Calm     72 % 0.00 in /  0 mm
20:45 48.2 °F /  9 °C 39.9 °F /  4.4 °C 30.10 in /  1019.2 hPa Calm     73 % 0.00 in /  0 mm
20:50 47.8 °F /  8.8 °C 39.6 °F /  4.2 °C 30.11 in /  1019.5 hPa Calm     73 % 0.00 in /  0 mm
20:55 47.4 °F /  8.6 °C 39.5 °F /  4.2 °C 30.11 in /  1019.5 hPa Calm     74 % 0.00 in /  0 mm
21:00 47.0 °F /  8.3 °C 39.1 °F /  3.9 °C 30.11 in /  1019.5 hPa Calm     74 % 0.00 in /  0 mm
21:05 46.7 °F /  8.2 °C 39.2 °F /  4 °C 30.11 in /  1019.5 hPa Calm     75 % 0.00 in /  0 mm
21:10 46.3 °F /  7.9 °C 39.1 °F /  3.9 °C 30.12 in /  1019.9 hPa Calm     76 % 0.00 in /  0 mm
21:15 46.4 °F /  8 °C 39.6 °F /  4.2 °C 30.12 in /  1019.9 hPa Calm     77 % 0.00 in /  0 mm
21:20 46.4 °F /  8 °C 39.2 °F /  4 °C 30.12 in /  1019.9 hPa Calm     76 % 0.00 in /  0 mm
21:25 46.1 °F /  7.8 °C 39.0 °F /  3.9 °C 30.12 in /  1019.9 hPa Calm     76 % 0.00 in /  0 mm
21:30 45.9 °F /  7.7 °C 39.1 °F /  3.9 °C 30.12 in /  1019.9 hPa Calm     77 % 0.00 in /  0 mm
21:35 45.8 °F /  7.7 °C 39.0 °F /  3.9 °C 30.12 in /  1019.9 hPa Calm     77 % 0.00 in /  0 mm
21:40 45.7 °F /  7.6 °C 38.9 °F /  3.8 °C 30.13 in /  1020.2 hPa Calm     77 % 0.00 in /  0 mm
21:45 45.3 °F /  7.4 °C 38.5 °F /  3.6 °C 30.13 in /  1020.2 hPa Calm     77 % 0.00 in /  0 mm
21:51 45.3 °F /  7.4 °C 38.5 °F /  3.6 °C 30.13 in /  1020.2 hPa Calm     77 % 0.00 in /  0 mm
21:56 45.1 °F /  7.3 °C 38.3 °F /  3.5 °C 30.13 in /  1020.2 hPa Calm     77 % 0.00 in /  0 mm
22:01 45.0 °F /  7.2 °C 38.6 °F /  3.7 °C 30.13 in /  1020.2 hPa Calm     78 % 0.00 in /  0 mm
22:06 44.7 °F /  7.1 °C 38.3 °F /  3.5 °C 30.13 in /  1020.2 hPa Calm     78 % 0.00 in /  0 mm
22:11 44.4 °F /  6.9 °C 38.0 °F /  3.3 °C 30.14 in /  1020.5 hPa Calm     78 % 0.00 in /  0 mm
22:16 44.0 °F /  6.7 °C 38.2 °F /  3.4 °C 30.14 in /  1020.5 hPa Calm     80 % 0.00 in /  0 mm
22:21 43.9 °F /  6.6 °C 38.1 °F /  3.4 °C 30.14 in /  1020.5 hPa Calm     80 % 0.00 in /  0 mm
22:26 43.7 °F /  6.5 °C 37.9 °F /  3.3 °C 30.14 in /  1020.5 hPa Calm     80 % 0.00 in /  0 mm
22:31 43.5 °F /  6.4 °C 38.1 °F /  3.4 °C 30.14 in /  1020.5 hPa Calm     81 % 0.00 in /  0 mm
22:36 43.3 °F /  6.3 °C 38.2 °F /  3.4 °C 30.14 in /  1020.5 hPa Calm     82 % 0.00 in /  0 mm
22:41 43.2 °F /  6.2 °C 38.1 °F /  3.4 °C 30.14 in /  1020.5 hPa Calm     82 % 0.00 in /  0 mm
22:46 43.1 °F /  6.2 °C 38.0 °F /  3.3 °C 30.14 in /  1020.5 hPa Calm     82 % 0.00 in /  0 mm
22:51 42.8 °F /  6 °C 37.7 °F /  3.2 °C 30.14 in /  1020.5 hPa Calm     82 % 0.00 in /  0 mm
22:56 42.5 °F /  5.8 °C 37.4 °F /  3 °C 30.15 in /  1020.9 hPa Calm     82 % 0.00 in /  0 mm
23:01 42.3 °F /  5.7 °C 37.5 °F /  3.1 °C 30.15 in /  1020.9 hPa Calm     83 % 0.00 in /  0 mm
23:06 42.1 °F /  5.6 °C 37.3 °F /  2.9 °C 30.15 in /  1020.9 hPa Calm     83 % 0.00 in /  0 mm
23:11 41.8 °F /  5.4 °C 37.0 °F /  2.8 °C 30.15 in /  1020.9 hPa Calm     83 % 0.00 in /  0 mm
23:16 41.6 °F /  5.3 °C 37.1 °F /  2.8 °C 30.15 in /  1020.9 hPa Calm     84 % 0.00 in /  0 mm
23:21 41.6 °F /  5.3 °C 37.1 °F /  2.8 °C 30.15 in /  1020.9 hPa Calm     84 % 0.00 in /  0 mm
23:26 41.8 °F /  5.4 °C 37.6 °F /  3.1 °C 30.15 in /  1020.9 hPa Calm     85 % 0.00 in /  0 mm
23:31 41.7 °F /  5.4 °C 37.2 °F /  2.9 °C 30.15 in /  1020.9 hPa Calm     84 % 0.00 in /  0 mm
23:36 41.9 °F /  5.5 °C 37.1 °F /  2.8 °C 30.15 in /  1020.9 hPa Calm     83 % 0.00 in /  0 mm
23:41 41.9 °F /  5.5 °C 36.8 °F /  2.7 °C 30.15 in /  1020.9 hPa Calm     82 % 0.00 in /  0 mm
23:46 41.9 °F /  5.5 °C 36.5 °F /  2.5 °C 30.15 in /  1020.9 hPa Calm     81 % 0.00 in /  0 mm
23:51 41.5 °F /  5.3 °C 36.1 °F /  2.3 °C 30.15 in /  1020.9 hPa Calm     81 % 0.00 in /  0 mm
23:56 41.4 °F /  5.2 °C 36.3 °F /  2.4 °C 30.15 in /  1020.9 hPa Calm     82 % 0.00 in /  0 mm
Park Place, Exeter, Tulare County, California, USA
Compliments of Weather Underground - 2.75 mb